sensor_id;sensor_type;location;lat;lon;timestamp;temperature;humidity
7708;DHT22;3896;48.758;8.888;2023-12-29T00:01:32;9.80;99.90
7708;DHT22;3896;48.758;8.888;2023-12-29T00:03:58;9.80;99.90
7708;DHT22;3896;48.758;8.888;2023-12-29T00:06:23;9.80;99.90
7708;DHT22;3896;48.758;8.888;2023-12-29T00:08:49;9.80;99.90
7708;DHT22;3896;48.758;8.888;2023-12-29T00:11:20;9.80;99.90
7708;DHT22;3896;48.758;8.888;2023-12-29T00:13:46;9.80;99.90
7708;DHT22;3896;48.758;8.888;2023-12-29T00:16:12;9.80;99.90
7708;DHT22;3896;48.758;8.888;2023-12-29T00:18:38;9.80;99.90
7708;DHT22;3896;48.758;8.888;2023-12-29T00:21:04;9.70;99.90
7708;DHT22;3896;48.758;8.888;2023-12-29T00:23:30;9.70;99.90
7708;DHT22;3896;48.758;8.888;2023-12-29T00:25:55;9.70;99.90
7708;DHT22;3896;48.758;8.888;2023-12-29T00:28:21;9.70;99.90
7708;DHT22;3896;48.758;8.888;2023-12-29T00:30:46;9.70;99.90
7708;DHT22;3896;48.758;8.888;2023-12-29T00:33:12;9.70;99.90
7708;DHT22;3896;48.758;8.888;2023-12-29T00:35:38;9.70;99.90
7708;DHT22;3896;48.758;8.888;2023-12-29T00:38:06;9.70;99.90
7708;DHT22;3896;48.758;8.888;2023-12-29T00:40:33;9.70;99.90
7708;DHT22;3896;48.758;8.888;2023-12-29T00:43:01;9.60;99.90
7708;DHT22;3896;48.758;8.888;2023-12-29T00:45:27;9.70;99.90
7708;DHT22;3896;48.758;8.888;2023-12-29T00:47:59;9.70;99.90
7708;DHT22;3896;48.758;8.888;2023-12-29T00:50:25;9.70;99.90
7708;DHT22;3896;48.758;8.888;2023-12-29T00:52:51;9.70;99.90
7708;DHT22;3896;48.758;8.888;2023-12-29T00:55:17;9.70;99.90
7708;DHT22;3896;48.758;8.888;2023-12-29T00:57:43;9.70;99.90
7708;DHT22;3896;48.758;8.888;2023-12-29T01:00:11;9.70;99.90
7708;DHT22;3896;48.758;8.888;2023-12-29T01:02:37;9.70;99.90
7708;DHT22;3896;48.758;8.888;2023-12-29T01:05:03;9.70;99.90
7708;DHT22;3896;48.758;8.888;2023-12-29T01:07:28;9.70;99.90
7708;DHT22;3896;48.758;8.888;2023-12-29T01:09:55;9.70;99.90
7708;DHT22;3896;48.758;8.888;2023-12-29T01:12:20;9.70;99.90
7708;DHT22;3896;48.758;8.888;2023-12-29T01:14:46;9.70;99.90
7708;DHT22;3896;48.758;8.888;2023-12-29T01:17:11;9.70;99.90
7708;DHT22;3896;48.758;8.888;2023-12-29T01:19:37;9.70;99.90
7708;DHT22;3896;48.758;8.888;2023-12-29T01:22:03;9.70;99.90
7708;DHT22;3896;48.758;8.888;2023-12-29T01:24:28;9.70;99.90
7708;DHT22;3896;48.758;8.888;2023-12-29T01:26:54;9.80;99.90
7708;DHT22;3896;48.758;8.888;2023-12-29T01:29:19;9.70;99.90
7708;DHT22;3896;48.758;8.888;2023-12-29T01:31:45;9.80;99.90
7708;DHT22;3896;48.758;8.888;2023-12-29T01:34:10;9.80;99.90
7708;DHT22;3896;48.758;8.888;2023-12-29T01:36:36;9.80;99.90
7708;DHT22;3896;48.758;8.888;2023-12-29T01:39:02;9.80;99.90
7708;DHT22;3896;48.758;8.888;2023-12-29T01:41:29;9.80;99.90
7708;DHT22;3896;48.758;8.888;2023-12-29T01:46:29;9.80;99.90
7708;DHT22;3896;48.758;8.888;2023-12-29T01:48:55;9.80;99.90
7708;DHT22;3896;48.758;8.888;2023-12-29T01:51:25;9.80;99.90
7708;DHT22;3896;48.758;8.888;2023-12-29T01:53:55;9.80;99.90
7708;DHT22;3896;48.758;8.888;2023-12-29T01:56:22;9.80;99.90
7708;DHT22;3896;48.758;8.888;2023-12-29T01:58:49;9.80;99.90
7708;DHT22;3896;48.758;8.888;2023-12-29T02:01:17;9.90;99.90
7708;DHT22;3896;48.758;8.888;2023-12-29T02:03:44;9.80;99.90
7708;DHT22;3896;48.758;8.888;2023-12-29T02:06:10;9.80;99.90
7708;DHT22;3896;48.758;8.888;2023-12-29T02:08:37;9.90;99.90
7708;DHT22;3896;48.758;8.888;2023-12-29T02:11:03;9.90;99.90
7708;DHT22;3896;48.758;8.888;2023-12-29T02:13:29;9.90;99.90
7708;DHT22;3896;48.758;8.888;2023-12-29T02:16:05;9.90;99.90
7708;DHT22;3896;48.758;8.888;2023-12-29T02:18:34;9.90;99.90
7708;DHT22;3896;48.758;8.888;2023-12-29T02:21:02;9.90;99.90
7708;DHT22;3896;48.758;8.888;2023-12-29T02:23:28;9.90;99.90
7708;DHT22;3896;48.758;8.888;2023-12-29T02:25:57;9.90;99.90
7708;DHT22;3896;48.758;8.888;2023-12-29T02:28:26;9.90;99.90
7708;DHT22;3896;48.758;8.888;2023-12-29T02:30:58;9.90;99.90
7708;DHT22;3896;48.758;8.888;2023-12-29T02:33:26;9.90;99.90
7708;DHT22;3896;48.758;8.888;2023-12-29T02:35:56;9.90;99.90
7708;DHT22;3896;48.758;8.888;2023-12-29T02:38:23;9.90;99.90
7708;DHT22;3896;48.758;8.888;2023-12-29T02:40:49;9.90;99.90
7708;DHT22;3896;48.758;8.888;2023-12-29T02:59:34;9.90;99.90
7708;DHT22;3896;48.758;8.888;2023-12-29T03:02:00;9.90;99.90
7708;DHT22;3896;48.758;8.888;2023-12-29T03:04:25;9.90;99.90
7708;DHT22;3896;48.758;8.888;2023-12-29T03:06:51;9.90;99.90
7708;DHT22;3896;48.758;8.888;2023-12-29T03:09:16;9.90;99.90
7708;DHT22;3896;48.758;8.888;2023-12-29T03:11:42;9.90;99.90
7708;DHT22;3896;48.758;8.888;2023-12-29T03:14:08;9.90;99.90
7708;DHT22;3896;48.758;8.888;2023-12-29T03:16:33;9.90;99.90
7708;DHT22;3896;48.758;8.888;2023-12-29T03:18:59;9.90;99.90
7708;DHT22;3896;48.758;8.888;2023-12-29T03:21:24;9.90;99.90
7708;DHT22;3896;48.758;8.888;2023-12-29T03:23:50;9.90;99.90
7708;DHT22;3896;48.758;8.888;2023-12-29T03:26:15;9.90;99.90
7708;DHT22;3896;48.758;8.888;2023-12-29T03:28:41;9.90;99.90
7708;DHT22;3896;48.758;8.888;2023-12-29T03:31:06;9.90;99.90
7708;DHT22;3896;48.758;8.888;2023-12-29T03:33:32;9.90;99.90
7708;DHT22;3896;48.758;8.888;2023-12-29T03:35:57;9.90;99.90
7708;DHT22;3896;48.758;8.888;2023-12-29T03:38:23;9.90;99.90
7708;DHT22;3896;48.758;8.888;2023-12-29T03:40:48;9.90;99.90
7708;DHT22;3896;48.758;8.888;2023-12-29T03:43:14;9.90;99.90
7708;DHT22;3896;48.758;8.888;2023-12-29T03:45:39;9.90;99.90
7708;DHT22;3896;48.758;8.888;2023-12-29T03:48:05;9.90;99.90
7708;DHT22;3896;48.758;8.888;2023-12-29T03:50:31;9.80;99.90
7708;DHT22;3896;48.758;8.888;2023-12-29T03:52:56;9.90;99.90
7708;DHT22;3896;48.758;8.888;2023-12-29T03:55:22;9.80;99.90
7708;DHT22;3896;48.758;8.888;2023-12-29T03:57:47;9.80;99.90
7708;DHT22;3896;48.758;8.888;2023-12-29T04:00:14;9.90;99.90
7708;DHT22;3896;48.758;8.888;2023-12-29T04:02:40;9.90;99.90
7708;DHT22;3896;48.758;8.888;2023-12-29T04:05:09;9.90;99.90
7708;DHT22;3896;48.758;8.888;2023-12-29T04:07:36;9.80;99.90
7708;DHT22;3896;48.758;8.888;2023-12-29T04:10:01;9.80;99.90
7708;DHT22;3896;48.758;8.888;2023-12-29T04:12:27;9.80;99.90
7708;DHT22;3896;48.758;8.888;2023-12-29T04:14:52;9.80;99.90
7708;DHT22;3896;48.758;8.888;2023-12-29T04:17:18;9.80;99.90
7708;DHT22;3896;48.758;8.888;2023-12-29T04:19:43;9.80;99.90
7708;DHT22;3896;48.758;8.888;2023-12-29T04:22:09;9.80;99.90
7708;DHT22;3896;48.758;8.888;2023-12-29T04:24:37;9.80;99.90
7708;DHT22;3896;48.758;8.888;2023-12-29T04:27:02;9.80;99.90
7708;DHT22;3896;48.758;8.888;2023-12-29T04:29:28;9.80;99.90
7708;DHT22;3896;48.758;8.888;2023-12-29T04:31:54;9.80;99.90
7708;DHT22;3896;48.758;8.888;2023-12-29T04:34:20;9.80;99.90
7708;DHT22;3896;48.758;8.888;2023-12-29T04:36:45;9.80;99.90
7708;DHT22;3896;48.758;8.888;2023-12-29T04:39:11;9.80;99.90
7708;DHT22;3896;48.758;8.888;2023-12-29T04:41:36;9.80;99.90
7708;DHT22;3896;48.758;8.888;2023-12-29T04:44:02;9.80;99.90
7708;DHT22;3896;48.758;8.888;2023-12-29T04:46:27;9.80;99.90
7708;DHT22;3896;48.758;8.888;2023-12-29T04:48:53;9.80;99.90
7708;DHT22;3896;48.758;8.888;2023-12-29T04:51:19;9.80;99.90
7708;DHT22;3896;48.758;8.888;2023-12-29T04:53:45;9.80;99.90
7708;DHT22;3896;48.758;8.888;2023-12-29T04:56:11;9.80;99.90
7708;DHT22;3896;48.758;8.888;2023-12-29T04:58:37;9.80;99.90
7708;DHT22;3896;48.758;8.888;2023-12-29T05:01:03;9.80;99.90
7708;DHT22;3896;48.758;8.888;2023-12-29T05:03:29;9.80;99.90
7708;DHT22;3896;48.758;8.888;2023-12-29T05:05:54;9.80;99.90
7708;DHT22;3896;48.758;8.888;2023-12-29T05:08:20;9.80;99.90
7708;DHT22;3896;48.758;8.888;2023-12-29T05:10:45;9.80;99.90
7708;DHT22;3896;48.758;8.888;2023-12-29T05:13:11;9.80;99.90
7708;DHT22;3896;48.758;8.888;2023-12-29T05:15:36;9.80;99.90
7708;DHT22;3896;48.758;8.888;2023-12-29T05:18:02;9.80;99.90
7708;DHT22;3896;48.758;8.888;2023-12-29T05:20:28;9.80;99.90
7708;DHT22;3896;48.758;8.888;2023-12-29T05:22:55;9.70;99.90
7708;DHT22;3896;48.758;8.888;2023-12-29T05:25:20;9.80;99.90
7708;DHT22;3896;48.758;8.888;2023-12-29T05:27:47;9.70;99.90
7708;DHT22;3896;48.758;8.888;2023-12-29T05:30:13;9.70;99.90
7708;DHT22;3896;48.758;8.888;2023-12-29T05:32:39;9.70;99.90
7708;DHT22;3896;48.758;8.888;2023-12-29T05:35:05;9.80;99.90
7708;DHT22;3896;48.758;8.888;2023-12-29T05:37:30;9.70;99.90
7708;DHT22;3896;48.758;8.888;2023-12-29T05:39:56;9.80;99.90
7708;DHT22;3896;48.758;8.888;2023-12-29T05:42:21;9.80;99.90
7708;DHT22;3896;48.758;8.888;2023-12-29T05:44:47;9.80;99.90
7708;DHT22;3896;48.758;8.888;2023-12-29T05:47:12;9.70;99.90
7708;DHT22;3896;48.758;8.888;2023-12-29T05:49:38;9.70;99.90
7708;DHT22;3896;48.758;8.888;2023-12-29T05:52:08;9.70;99.90
7708;DHT22;3896;48.758;8.888;2023-12-29T05:54:34;9.70;99.90
7708;DHT22;3896;48.758;8.888;2023-12-29T05:57:00;9.70;99.90
7708;DHT22;3896;48.758;8.888;2023-12-29T05:59:25;9.70;99.90
7708;DHT22;3896;48.758;8.888;2023-12-29T06:01:51;9.70;99.90
7708;DHT22;3896;48.758;8.888;2023-12-29T06:04:16;9.70;99.90
7708;DHT22;3896;48.758;8.888;2023-12-29T06:06:42;9.70;99.90
7708;DHT22;3896;48.758;8.888;2023-12-29T06:09:11;9.70;99.90
7708;DHT22;3896;48.758;8.888;2023-12-29T06:11:37;9.70;99.90
7708;DHT22;3896;48.758;8.888;2023-12-29T06:14:02;9.70;99.90
7708;DHT22;3896;48.758;8.888;2023-12-29T06:16:28;9.70;99.90
7708;DHT22;3896;48.758;8.888;2023-12-29T06:18:55;9.70;99.90
7708;DHT22;3896;48.758;8.888;2023-12-29T06:21:20;9.70;99.90
7708;DHT22;3896;48.758;8.888;2023-12-29T06:23:46;9.70;99.90
7708;DHT22;3896;48.758;8.888;2023-12-29T06:26:19;9.70;99.90
7708;DHT22;3896;48.758;8.888;2023-12-29T06:28:46;9.70;99.90
7708;DHT22;3896;48.758;8.888;2023-12-29T06:31:13;9.70;99.90
7708;DHT22;3896;48.758;8.888;2023-12-29T06:33:42;9.70;99.90
7708;DHT22;3896;48.758;8.888;2023-12-29T06:36:08;9.70;99.90
7708;DHT22;3896;48.758;8.888;2023-12-29T06:38:34;9.70;99.90
7708;DHT22;3896;48.758;8.888;2023-12-29T06:41:02;9.70;99.90
7708;DHT22;3896;48.758;8.888;2023-12-29T06:43:28;9.70;99.90
7708;DHT22;3896;48.758;8.888;2023-12-29T06:45:53;9.80;99.90
7708;DHT22;3896;48.758;8.888;2023-12-29T06:48:19;9.70;99.90
7708;DHT22;3896;48.758;8.888;2023-12-29T06:50:45;9.70;99.90
7708;DHT22;3896;48.758;8.888;2023-12-29T06:53:11;9.70;99.90
7708;DHT22;3896;48.758;8.888;2023-12-29T06:55:36;9.80;99.90
7708;DHT22;3896;48.758;8.888;2023-12-29T06:58:02;9.70;99.90
7708;DHT22;3896;48.758;8.888;2023-12-29T07:00:28;9.80;99.90
7708;DHT22;3896;48.758;8.888;2023-12-29T07:02:53;9.80;99.90
7708;DHT22;3896;48.758;8.888;2023-12-29T07:05:19;9.80;99.90
7708;DHT22;3896;48.758;8.888;2023-12-29T07:07:45;9.70;99.90
7708;DHT22;3896;48.758;8.888;2023-12-29T07:10:12;9.80;99.90
7708;DHT22;3896;48.758;8.888;2023-12-29T07:12:40;9.80;99.90
7708;DHT22;3896;48.758;8.888;2023-12-29T07:15:06;9.80;99.90
7708;DHT22;3896;48.758;8.888;2023-12-29T07:17:31;9.80;99.90
7708;DHT22;3896;48.758;8.888;2023-12-29T07:19:57;9.80;99.90
7708;DHT22;3896;48.758;8.888;2023-12-29T07:22:23;9.80;99.90
7708;DHT22;3896;48.758;8.888;2023-12-29T07:24:48;9.80;99.90
7708;DHT22;3896;48.758;8.888;2023-12-29T07:27:14;9.70;99.90
7708;DHT22;3896;48.758;8.888;2023-12-29T07:29:39;9.80;99.90
7708;DHT22;3896;48.758;8.888;2023-12-29T07:32:05;9.80;99.90
7708;DHT22;3896;48.758;8.888;2023-12-29T07:34:31;9.80;99.90
7708;DHT22;3896;48.758;8.888;2023-12-29T07:36:57;9.80;99.90
7708;DHT22;3896;48.758;8.888;2023-12-29T07:39:24;9.80;99.90
7708;DHT22;3896;48.758;8.888;2023-12-29T07:41:49;9.80;99.90
7708;DHT22;3896;48.758;8.888;2023-12-29T07:44:16;9.80;99.90
7708;DHT22;3896;48.758;8.888;2023-12-29T07:46:43;9.80;99.90
7708;DHT22;3896;48.758;8.888;2023-12-29T07:49:10;9.80;99.90
7708;DHT22;3896;48.758;8.888;2023-12-29T07:51:42;9.80;99.90
7708;DHT22;3896;48.758;8.888;2023-12-29T07:54:08;9.80;99.90
7708;DHT22;3896;48.758;8.888;2023-12-29T07:56:34;9.80;99.90
7708;DHT22;3896;48.758;8.888;2023-12-29T07:59:01;9.80;99.90
7708;DHT22;3896;48.758;8.888;2023-12-29T08:01:26;9.80;99.90
7708;DHT22;3896;48.758;8.888;2023-12-29T08:03:52;9.80;99.90
7708;DHT22;3896;48.758;8.888;2023-12-29T08:06:18;9.80;99.90
7708;DHT22;3896;48.758;8.888;2023-12-29T08:08:43;9.80;99.90
7708;DHT22;3896;48.758;8.888;2023-12-29T08:11:16;9.80;99.90
7708;DHT22;3896;48.758;8.888;2023-12-29T08:13:44;9.80;99.90
7708;DHT22;3896;48.758;8.888;2023-12-29T08:16:10;9.80;99.90
7708;DHT22;3896;48.758;8.888;2023-12-29T08:18:36;9.80;99.90
7708;DHT22;3896;48.758;8.888;2023-12-29T08:21:01;9.90;99.90
7708;DHT22;3896;48.758;8.888;2023-12-29T08:23:27;9.90;99.90
7708;DHT22;3896;48.758;8.888;2023-12-29T08:25:53;9.90;99.90
7708;DHT22;3896;48.758;8.888;2023-12-29T08:28:18;9.80;99.90
7708;DHT22;3896;48.758;8.888;2023-12-29T08:30:44;9.90;99.90
7708;DHT22;3896;48.758;8.888;2023-12-29T08:33:13;9.90;99.90
7708;DHT22;3896;48.758;8.888;2023-12-29T08:35:43;9.90;99.90
7708;DHT22;3896;48.758;8.888;2023-12-29T08:38:09;9.90;99.90
7708;DHT22;3896;48.758;8.888;2023-12-29T08:40:35;9.90;99.90
7708;DHT22;3896;48.758;8.888;2023-12-29T08:43:01;9.90;99.90
7708;DHT22;3896;48.758;8.888;2023-12-29T08:45:27;9.90;99.90
7708;DHT22;3896;48.758;8.888;2023-12-29T08:47:52;9.90;99.90
7708;DHT22;3896;48.758;8.888;2023-12-29T08:50:19;9.90;99.90
7708;DHT22;3896;48.758;8.888;2023-12-29T08:52:44;9.90;99.90
7708;DHT22;3896;48.758;8.888;2023-12-29T08:55:10;9.90;99.90
7708;DHT22;3896;48.758;8.888;2023-12-29T08:57:36;9.90;99.90
7708;DHT22;3896;48.758;8.888;2023-12-29T09:00:01;9.90;99.90
7708;DHT22;3896;48.758;8.888;2023-12-29T09:02:28;9.90;99.90
7708;DHT22;3896;48.758;8.888;2023-12-29T09:04:53;10.00;99.90
7708;DHT22;3896;48.758;8.888;2023-12-29T09:07:19;9.90;99.90
7708;DHT22;3896;48.758;8.888;2023-12-29T09:09:44;10.00;99.90
7708;DHT22;3896;48.758;8.888;2023-12-29T09:12:10;10.00;99.90
7708;DHT22;3896;48.758;8.888;2023-12-29T09:14:35;10.00;99.90
7708;DHT22;3896;48.758;8.888;2023-12-29T09:17:01;10.00;99.90
7708;DHT22;3896;48.758;8.888;2023-12-29T09:19:27;10.00;99.90
7708;DHT22;3896;48.758;8.888;2023-12-29T09:21:53;10.00;99.90
7708;DHT22;3896;48.758;8.888;2023-12-29T09:24:18;10.00;99.90
7708;DHT22;3896;48.758;8.888;2023-12-29T09:26:44;10.00;99.90
7708;DHT22;3896;48.758;8.888;2023-12-29T09:29:09;10.00;99.90
7708;DHT22;3896;48.758;8.888;2023-12-29T09:31:35;10.10;99.90
7708;DHT22;3896;48.758;8.888;2023-12-29T09:34:01;10.10;99.90
7708;DHT22;3896;48.758;8.888;2023-12-29T09:36:27;10.10;99.90
7708;DHT22;3896;48.758;8.888;2023-12-29T09:38:52;10.10;99.90
7708;DHT22;3896;48.758;8.888;2023-12-29T09:41:19;10.10;99.90
7708;DHT22;3896;48.758;8.888;2023-12-29T09:43:48;10.20;99.90
7708;DHT22;3896;48.758;8.888;2023-12-29T09:46:16;10.20;99.90
7708;DHT22;3896;48.758;8.888;2023-12-29T09:48:45;10.20;99.90
7708;DHT22;3896;48.758;8.888;2023-12-29T09:51:12;10.20;99.90
7708;DHT22;3896;48.758;8.888;2023-12-29T09:53:38;10.20;99.90
7708;DHT22;3896;48.758;8.888;2023-12-29T09:56:07;10.20;99.90
7708;DHT22;3896;48.758;8.888;2023-12-29T09:58:33;10.30;99.90
7708;DHT22;3896;48.758;8.888;2023-12-29T10:00:59;10.20;99.90
7708;DHT22;3896;48.758;8.888;2023-12-29T10:03:26;10.30;99.90
7708;DHT22;3896;48.758;8.888;2023-12-29T10:05:54;10.30;99.90
7708;DHT22;3896;48.758;8.888;2023-12-29T10:08:22;10.30;99.90
7708;DHT22;3896;48.758;8.888;2023-12-29T10:10:49;10.40;99.90
7708;DHT22;3896;48.758;8.888;2023-12-29T10:13:17;10.40;99.90
7708;DHT22;3896;48.758;8.888;2023-12-29T10:18:42;10.60;99.90
7708;DHT22;3896;48.758;8.888;2023-12-29T10:21:29;10.60;99.90
7708;DHT22;3896;48.758;8.888;2023-12-29T10:24:11;10.60;99.90
7708;DHT22;3896;48.758;8.888;2023-12-29T10:26:39;10.60;99.90
7708;DHT22;3896;48.758;8.888;2023-12-29T10:29:05;10.70;99.90
7708;DHT22;3896;48.758;8.888;2023-12-29T10:31:32;10.70;99.90
7708;DHT22;3896;48.758;8.888;2023-12-29T10:34:24;10.80;99.90
7708;DHT22;3896;48.758;8.888;2023-12-29T10:36:57;10.80;99.90
7708;DHT22;3896;48.758;8.888;2023-12-29T10:39:23;10.90;99.90
7708;DHT22;3896;48.758;8.888;2023-12-29T10:42:07;11.10;99.90
7708;DHT22;3896;48.758;8.888;2023-12-29T10:44:34;11.20;99.90
7708;DHT22;3896;48.758;8.888;2023-12-29T10:47:10;11.30;99.90
7708;DHT22;3896;48.758;8.888;2023-12-29T10:49:37;11.40;99.90
7708;DHT22;3896;48.758;8.888;2023-12-29T10:52:13;11.50;99.90
7708;DHT22;3896;48.758;8.888;2023-12-29T10:54:42;11.70;99.90
7708;DHT22;3896;48.758;8.888;2023-12-29T10:57:10;11.80;99.90
7708;DHT22;3896;48.758;8.888;2023-12-29T10:59:37;12.00;99.90
7708;DHT22;3896;48.758;8.888;2023-12-29T11:02:03;12.10;99.90
7708;DHT22;3896;48.758;8.888;2023-12-29T11:04:29;12.30;99.90
7708;DHT22;3896;48.758;8.888;2023-12-29T11:06:54;12.50;99.90
7708;DHT22;3896;48.758;8.888;2023-12-29T11:09:30;12.60;99.90
7708;DHT22;3896;48.758;8.888;2023-12-29T11:12:03;12.70;99.90
7708;DHT22;3896;48.758;8.888;2023-12-29T11:14:29;12.90;99.90
7708;DHT22;3896;48.758;8.888;2023-12-29T11:16:56;13.00;99.90
7708;DHT22;3896;48.758;8.888;2023-12-29T11:19:22;13.10;99.90
7708;DHT22;3896;48.758;8.888;2023-12-29T11:21:51;13.30;99.90
7708;DHT22;3896;48.758;8.888;2023-12-29T11:24:20;13.40;99.90
7708;DHT22;3896;48.758;8.888;2023-12-29T11:26:46;13.50;99.90
7708;DHT22;3896;48.758;8.888;2023-12-29T11:29:12;13.50;99.90
7708;DHT22;3896;48.758;8.888;2023-12-29T11:31:41;13.70;99.90
7708;DHT22;3896;48.758;8.888;2023-12-29T11:34:18;13.80;99.90
7708;DHT22;3896;48.758;8.888;2023-12-29T11:36:46;14.00;99.90
7708;DHT22;3896;48.758;8.888;2023-12-29T11:39:30;14.10;99.90
7708;DHT22;3896;48.758;8.888;2023-12-29T11:42:05;14.20;99.90
7708;DHT22;3896;48.758;8.888;2023-12-29T11:44:32;14.30;99.90
7708;DHT22;3896;48.758;8.888;2023-12-29T11:46:59;14.30;99.20
7708;DHT22;3896;48.758;8.888;2023-12-29T11:49:25;14.40;98.80
7708;DHT22;3896;48.758;8.888;2023-12-29T11:51:51;14.50;97.80
7708;DHT22;3896;48.758;8.888;2023-12-29T11:54:24;14.60;97.10
7708;DHT22;3896;48.758;8.888;2023-12-29T11:56:50;14.70;97.20
7708;DHT22;3896;48.758;8.888;2023-12-29T11:59:25;14.80;96.30
7708;DHT22;3896;48.758;8.888;2023-12-29T12:01:57;14.80;95.50
7708;DHT22;3896;48.758;8.888;2023-12-29T12:04:39;14.90;94.80
7708;DHT22;3896;48.758;8.888;2023-12-29T12:13:03;15.10;93.00
7708;DHT22;3896;48.758;8.888;2023-12-29T12:17:59;15.30;91.60
7708;DHT22;3896;48.758;8.888;2023-12-29T12:20:25;15.40;91.30
7708;DHT22;3896;48.758;8.888;2023-12-29T12:22:58;15.60;90.60
7708;DHT22;3896;48.758;8.888;2023-12-29T12:25:29;15.70;89.70
7708;DHT22;3896;48.758;8.888;2023-12-29T12:27:56;15.80;88.00
7708;DHT22;3896;48.758;8.888;2023-12-29T12:30:21;15.80;87.30
7708;DHT22;3896;48.758;8.888;2023-12-29T12:32:57;15.80;86.50
7708;DHT22;3896;48.758;8.888;2023-12-29T12:35:23;15.80;85.80
7708;DHT22;3896;48.758;8.888;2023-12-29T12:37:48;15.80;86.00
7708;DHT22;3896;48.758;8.888;2023-12-29T12:40:29;15.80;85.70
7708;DHT22;3896;48.758;8.888;2023-12-29T12:42:54;15.80;86.00
7708;DHT22;3896;48.758;8.888;2023-12-29T12:45:21;15.90;85.30
7708;DHT22;3896;48.758;8.888;2023-12-29T12:47:52;16.00;84.60
7708;DHT22;3896;48.758;8.888;2023-12-29T12:50:20;16.10;84.30
7708;DHT22;3896;48.758;8.888;2023-12-29T12:52:46;16.10;84.30
7708;DHT22;3896;48.758;8.888;2023-12-29T12:55:12;16.20;83.20
7708;DHT22;3896;48.758;8.888;2023-12-29T12:57:39;16.20;82.80
7708;DHT22;3896;48.758;8.888;2023-12-29T13:00:06;16.30;82.10
7708;DHT22;3896;48.758;8.888;2023-12-29T13:02:34;16.30;81.30
7708;DHT22;3896;48.758;8.888;2023-12-29T13:04:59;16.40;80.40
7708;DHT22;3896;48.758;8.888;2023-12-29T13:07:25;16.40;79.80
7708;DHT22;3896;48.758;8.888;2023-12-29T13:09:52;16.50;79.50
7708;DHT22;3896;48.758;8.888;2023-12-29T13:12:18;16.50;78.60
7708;DHT22;3896;48.758;8.888;2023-12-29T13:14:44;16.40;78.00
7708;DHT22;3896;48.758;8.888;2023-12-29T13:17:12;16.30;77.80
7708;DHT22;3896;48.758;8.888;2023-12-29T13:19:39;16.30;77.20
7708;DHT22;3896;48.758;8.888;2023-12-29T13:22:07;16.20;76.40
7708;DHT22;3896;48.758;8.888;2023-12-29T13:24:33;16.10;76.50
7708;DHT22;3896;48.758;8.888;2023-12-29T13:27:05;16.00;75.80
7708;DHT22;3896;48.758;8.888;2023-12-29T13:29:31;15.90;75.90
7708;DHT22;3896;48.758;8.888;2023-12-29T13:32:24;15.90;75.90
7708;DHT22;3896;48.758;8.888;2023-12-29T13:35:06;15.70;75.40
7708;DHT22;3896;48.758;8.888;2023-12-29T13:42:48;15.50;76.00
7708;DHT22;3896;48.758;8.888;2023-12-29T13:45:17;15.40;76.00
7708;DHT22;3896;48.758;8.888;2023-12-29T13:47:44;15.40;75.70
7708;DHT22;3896;48.758;8.888;2023-12-29T13:50:10;15.40;75.50
7708;DHT22;3896;48.758;8.888;2023-12-29T13:52:39;15.30;75.20
7708;DHT22;3896;48.758;8.888;2023-12-29T13:55:05;15.20;74.80
7708;DHT22;3896;48.758;8.888;2023-12-29T13:57:35;15.20;75.00
7708;DHT22;3896;48.758;8.888;2023-12-29T14:00:23;15.20;75.00
7708;DHT22;3896;48.758;8.888;2023-12-29T14:05:28;15.10;74.60
7708;DHT22;3896;48.758;8.888;2023-12-29T14:10:34;14.90;74.00
7708;DHT22;3896;48.758;8.888;2023-12-29T14:13:07;14.90;74.00
7708;DHT22;3896;48.758;8.888;2023-12-29T14:15:35;14.80;73.80
7708;DHT22;3896;48.758;8.888;2023-12-29T14:18:03;14.80;73.30
7708;DHT22;3896;48.758;8.888;2023-12-29T14:20:34;14.70;73.20
7708;DHT22;3896;48.758;8.888;2023-12-29T14:23:03;14.60;73.10
7708;DHT22;3896;48.758;8.888;2023-12-29T14:25:31;14.60;73.00
7708;DHT22;3896;48.758;8.888;2023-12-29T14:28:01;14.50;73.00
7708;DHT22;3896;48.758;8.888;2023-12-29T14:30:27;14.50;73.20
7708;DHT22;3896;48.758;8.888;2023-12-29T14:32:57;14.40;73.40
7708;DHT22;3896;48.758;8.888;2023-12-29T14:35:23;14.40;73.70
7708;DHT22;3896;48.758;8.888;2023-12-29T14:37:49;14.30;73.70
7708;DHT22;3896;48.758;8.888;2023-12-29T14:40:14;14.30;73.60
7708;DHT22;3896;48.758;8.888;2023-12-29T14:42:40;14.30;73.60
7708;DHT22;3896;48.758;8.888;2023-12-29T14:45:09;14.20;73.70
7708;DHT22;3896;48.758;8.888;2023-12-29T14:47:35;14.20;74.10
7708;DHT22;3896;48.758;8.888;2023-12-29T14:50:01;14.10;74.10
7708;DHT22;3896;48.758;8.888;2023-12-29T14:52:26;14.10;74.10
7708;DHT22;3896;48.758;8.888;2023-12-29T14:54:52;14.00;74.00
7708;DHT22;3896;48.758;8.888;2023-12-29T14:57:17;14.00;74.20
7708;DHT22;3896;48.758;8.888;2023-12-29T14:59:43;14.00;74.30
7708;DHT22;3896;48.758;8.888;2023-12-29T15:02:09;13.90;73.80
7708;DHT22;3896;48.758;8.888;2023-12-29T15:04:35;13.90;73.50
7708;DHT22;3896;48.758;8.888;2023-12-29T15:07:01;13.90;73.60
7708;DHT22;3896;48.758;8.888;2023-12-29T15:09:27;13.80;73.30
7708;DHT22;3896;48.758;8.888;2023-12-29T15:11:52;13.80;73.00
7708;DHT22;3896;48.758;8.888;2023-12-29T15:14:19;13.70;72.90
7708;DHT22;3896;48.758;8.888;2023-12-29T15:16:45;13.60;73.00
7708;DHT22;3896;48.758;8.888;2023-12-29T15:19:11;13.60;73.00
7708;DHT22;3896;48.758;8.888;2023-12-29T15:21:38;13.60;72.50
7708;DHT22;3896;48.758;8.888;2023-12-29T15:24:05;13.50;72.50
7708;DHT22;3896;48.758;8.888;2023-12-29T15:26:30;13.40;72.50
7708;DHT22;3896;48.758;8.888;2023-12-29T15:28:56;13.40;72.70
7708;DHT22;3896;48.758;8.888;2023-12-29T15:31:23;13.30;72.80
7708;DHT22;3896;48.758;8.888;2023-12-29T15:33:49;13.30;73.20
7708;DHT22;3896;48.758;8.888;2023-12-29T15:36:15;13.20;72.90
7708;DHT22;3896;48.758;8.888;2023-12-29T15:38:49;13.10;73.00
7708;DHT22;3896;48.758;8.888;2023-12-29T15:41:14;13.00;72.80
7708;DHT22;3896;48.758;8.888;2023-12-29T15:43:40;13.00;73.00
7708;DHT22;3896;48.758;8.888;2023-12-29T15:46:15;12.90;73.10
7708;DHT22;3896;48.758;8.888;2023-12-29T15:48:42;12.80;73.10
7708;DHT22;3896;48.758;8.888;2023-12-29T15:51:08;12.80;73.00
7708;DHT22;3896;48.758;8.888;2023-12-29T15:53:34;12.70;72.70
7708;DHT22;3896;48.758;8.888;2023-12-29T15:56:00;12.60;72.70
7708;DHT22;3896;48.758;8.888;2023-12-29T15:58:28;12.60;72.50
7708;DHT22;3896;48.758;8.888;2023-12-29T16:00:54;12.50;72.40
7708;DHT22;3896;48.758;8.888;2023-12-29T16:03:19;12.40;72.30
7708;DHT22;3896;48.758;8.888;2023-12-29T16:05:45;12.40;72.30
7708;DHT22;3896;48.758;8.888;2023-12-29T16:08:10;12.30;72.50
7708;DHT22;3896;48.758;8.888;2023-12-29T16:10:37;12.20;72.40
7708;DHT22;3896;48.758;8.888;2023-12-29T16:13:03;12.20;72.30
7708;DHT22;3896;48.758;8.888;2023-12-29T16:15:28;12.10;72.40
7708;DHT22;3896;48.758;8.888;2023-12-29T16:17:54;12.00;72.20
7708;DHT22;3896;48.758;8.888;2023-12-29T16:20:20;12.00;72.20
7708;DHT22;3896;48.758;8.888;2023-12-29T16:22:45;11.90;72.10
7708;DHT22;3896;48.758;8.888;2023-12-29T16:25:11;11.80;72.10
7708;DHT22;3896;48.758;8.888;2023-12-29T16:27:36;11.80;72.30
7708;DHT22;3896;48.758;8.888;2023-12-29T16:30:02;11.80;72.30
7708;DHT22;3896;48.758;8.888;2023-12-29T16:32:27;11.70;72.30
7708;DHT22;3896;48.758;8.888;2023-12-29T16:34:58;11.70;72.30
7708;DHT22;3896;48.758;8.888;2023-12-29T16:37:24;11.70;72.50
7708;DHT22;3896;48.758;8.888;2023-12-29T16:39:51;11.60;72.40
7708;DHT22;3896;48.758;8.888;2023-12-29T16:42:18;11.60;72.50
7708;DHT22;3896;48.758;8.888;2023-12-29T16:44:44;11.60;72.50
7708;DHT22;3896;48.758;8.888;2023-12-29T16:47:10;11.50;72.60
7708;DHT22;3896;48.758;8.888;2023-12-29T16:49:36;11.50;72.80